Volgograd, Russia
Current Conditions -  °F | °C
As of 6:30 AM on Saturday 20 Dec 2014 (Local Time) from URWW Reporting Station
Haze Haze  
Wind Chill: 24°   Ceiling: 400
Heat Index: 34°   Visibility: 1.8mi
Dew Point: 34°   Wind: 13mph
Humidity: 100%   Direction: 250°WSW
Pressure: 30"   Gusts: NA
Location:  48.71°N, 44.48°E
Report Text: URWW 200330Z 25006MPS 3000 BR OVC004 01/01 Q1016 TEMPO 0500 FGOVC002 RMK OBST OBSC 29290253
Loading
Personal Weather Stations






























Interactive Weather Map New forecast layout! Learn more

10-Day Weather Forecast

Advertisements
Track Severe Weather on mobile